Taipei, Taiwan

7:32 AM CST on August 30, 2015 (GMT +0800)
ITAIPEIT2 | | Change Station
CLOSE
Current Station
Personal Weather Station
Location: Taipei Da'An, Taiwan
Elevation: 30 ft
Nearby Weather Stations

Elev 30 ft 25.03 °N, 121.53 °E | Updated 1 minute ago

Light Rain
Light Rain
78.3 °F
Feels Like 80 °F
N
0.0
Wind Variable Wind from SE
Gusts 4.0 mph

Today
High -- | Low -- °F
--% Chance of Precip.
Yesterday
High -- | Low -- °F
Precip. -- in
5:33 AM 6:15 PM
Full, 100% visible
Pressure 29.77 in
Visibility 3.7 miles
Clouds Few 400 ft
Scattered Clouds 1600 ft
Mostly Cloudy 3500 ft
Heat Index 80 °F
Dew Point 65 °F
Humidity 64%
Rainfall 0.02 in
Snow Depth Not available.
UV 1.0 out of 12
Pollen Not available.
Air Quality Not available.
Flu Activity Not available.
METAR RCSS 292300Z VRB03KT 6000 -RA FEW004 SCT016 BKN035 25/24 Q1008 NOSIG RMK A2977 RA AMT 0.2MM
Pressure 29.77 in
Visibility 3.7 miles
Clouds Few 400 ft
Scattered Clouds 1600 ft
Mostly Cloudy 3500 ft
Heat Index 80 °F
Dew Point 65 °F
Humidity 64%
Rainfall 0.02 in
Snow Depth Not available.
UV 1.0 out of 12
Pollen Not available.
Air Quality Not available.
Flu Activity Not available.
METAR RCSS 292300Z VRB03KT 6000 -RA FEW004 SCT016 BKN035 25/24 Q1008 NOSIG RMK A2977 RA AMT 0.2MM

10-Day Weather Forecast

×

Almanac

Astronomy

Aug. 30, 2015 Rise Set
Actual Time
Civil Twilight
Nautical Twilight
Astronomical Twilight
Moon
Length of Visible Light
Length of Day
Tomorrow will be .
, % of the Moon is Illuminated

Today's Extremes

Country Highs Country Lows

Community

WunderPhotos

Upload Photos

1,850,783 photos uploaded!

WunderBlogs® & News

Nearby

Air Quality

  Air Quality AQ Index Pollutant
Not available.

Snow Depth

Station Depth Elevation

Earthquake Activity

City Distance Mag. Time & Date
Minimum magnitude displayed is 2.5.

Coastal Water Temperatures

Place Temperature

Stations

Nearby Weather Stations

Station Location Temp. Windchill Dew Point Humidity Wind Precip. Elev Updated Type